createdAt,value
2022-08-19T00:00:54.961Z,101457
2022-08-19T00:01:56.605Z,101456
2022-08-19T00:02:55.425Z,101453
2022-08-19T00:03:55.016Z,101449
2022-08-19T00:04:55.620Z,101447
2022-08-19T00:05:54.860Z,101442
2022-08-19T00:06:55.257Z,101442
2022-08-19T00:07:55.047Z,101438
2022-08-19T00:08:55.021Z,101439
2022-08-19T00:09:54.946Z,101439
2022-08-19T00:10:54.861Z,101439
2022-08-19T00:11:56.743Z,101440
2022-08-19T00:12:55.044Z,101441
2022-08-19T00:14:55.378Z,101440
2022-08-19T00:15:54.916Z,101443
2022-08-19T00:16:55.813Z,101440
2022-08-19T00:17:55.660Z,101437
2022-08-19T00:18:56.624Z,101439
2022-08-19T00:19:54.963Z,101436
2022-08-19T00:20:55.528Z,101439
2022-08-19T00:21:55.521Z,101439
2022-08-19T00:23:55.999Z,101438
2022-08-19T00:24:54.878Z,101440
2022-08-19T00:25:54.893Z,101446
2022-08-19T00:26:56.287Z,101442
2022-08-19T00:27:54.843Z,101439
2022-08-19T00:29:55.045Z,101436
2022-08-19T00:30:54.871Z,101433
2022-08-19T00:31:56.900Z,101437
2022-08-19T00:32:56.355Z,101435
2022-08-19T00:33:55.096Z,101435
2022-08-19T00:34:55.169Z,101436
2022-08-19T00:35:56.698Z,101438
2022-08-19T00:36:55.024Z,101440
2022-08-19T00:37:55.689Z,101441
2022-08-19T00:38:54.965Z,101434
2022-08-19T00:39:56.999Z,101435
2022-08-19T00:40:55.079Z,101435
2022-08-19T00:41:54.901Z,101437
2022-08-19T00:42:55.106Z,101433
2022-08-19T00:44:13.737Z,101431
2022-08-19T00:44:54.920Z,101433
2022-08-19T00:45:55.123Z,101428
2022-08-19T00:46:58.094Z,101430
2022-08-19T00:48:56.478Z,101422
2022-08-19T00:49:59.948Z,101419
2022-08-19T00:50:56.715Z,101417
2022-08-19T00:52:01.967Z,101414
2022-08-19T00:53:56.834Z,101412
2022-08-19T00:54:55.530Z,101408
2022-08-19T00:55:58.040Z,101408
2022-08-19T00:56:55.268Z,101406
2022-08-19T00:57:59.784Z,101401
2022-08-19T00:58:56.629Z,101400
2022-08-19T01:00:02.662Z,101398
2022-08-19T01:01:55.096Z,101408
2022-08-19T01:02:55.377Z,101415
2022-08-19T01:03:56.843Z,101416
2022-08-19T01:04:55.671Z,101419
2022-08-19T01:05:57.036Z,101415
2022-08-19T01:06:54.956Z,101416
2022-08-19T01:07:56.203Z,101416
2022-08-19T01:08:56.308Z,101416
2022-08-19T01:10:58.474Z,101418
2022-08-19T01:11:54.938Z,101411
2022-08-19T01:12:57.206Z,101416
2022-08-19T01:13:56.404Z,101414
2022-08-19T01:14:56.409Z,101420
2022-08-19T01:15:59.085Z,101419
2022-08-19T01:16:58.007Z,101418
2022-08-19T01:17:56.860Z,101417
2022-08-19T01:18:55.160Z,101422
2022-08-19T01:19:55.139Z,101422
2022-08-19T01:20:59.170Z,101424
2022-08-19T01:22:01.178Z,101425
2022-08-19T01:22:58.295Z,101424
2022-08-19T01:23:55.202Z,101425
2022-08-19T01:24:55.323Z,101417
2022-08-19T01:25:56.876Z,101417
2022-08-19T01:26:55.877Z,101416
2022-08-19T01:27:55.423Z,101420
2022-08-19T01:29:02.258Z,101420
2022-08-19T01:29:54.830Z,101415
2022-08-19T01:30:55.658Z,101415
2022-08-19T01:31:54.900Z,101414
2022-08-19T01:33:57.497Z,101410
2022-08-19T01:34:54.884Z,101412
2022-08-19T01:35:54.895Z,101413
2022-08-19T01:36:55.283Z,101412
2022-08-19T01:38:02.016Z,101410
2022-08-19T01:38:55.125Z,101404
2022-08-19T01:39:54.925Z,101397
2022-08-19T01:40:55.114Z,101399
2022-08-19T01:41:56.284Z,101402
2022-08-19T01:42:55.789Z,101404
2022-08-19T01:44:09.866Z,101407
2022-08-19T01:44:54.823Z,101407
2022-08-19T01:45:55.327Z,101406
2022-08-19T01:46:54.931Z,101409
2022-08-19T01:48:01.930Z,101409
2022-08-19T01:48:54.949Z,101409
2022-08-19T01:49:55.111Z,101412
2022-08-19T01:50:54.832Z,101408
2022-08-19T01:51:55.863Z,101409
2022-08-19T01:53:06.179Z,101406
2022-08-19T01:53:54.974Z,101407
2022-08-19T01:55:54.809Z,101401
2022-08-19T01:56:59.426Z,101398
2022-08-19T01:57:59.694Z,101399
2022-08-19T01:59:01.441Z,101396
2022-08-19T02:00:54.819Z,101395
2022-08-19T02:01:54.811Z,101393
2022-08-19T02:02:55.292Z,101390
2022-08-19T02:03:56.830Z,101394
2022-08-19T02:04:54.951Z,101394
2022-08-19T02:06:00.670Z,101392
2022-08-19T02:06:54.966Z,101394
2022-08-19T02:07:54.820Z,101392
2022-08-19T02:08:57.599Z,101393
2022-08-19T02:09:56.078Z,101392
2022-08-19T02:10:55.342Z,101388
2022-08-19T02:11:54.846Z,101386
2022-08-19T02:12:55.079Z,101382
2022-08-19T02:16:55.009Z,101373
2022-08-19T02:17:55.103Z,101374
2022-08-19T02:21:55.189Z,101377
2022-08-19T02:22:54.911Z,101380
2022-08-19T02:23:55.033Z,101380
2022-08-19T02:24:55.738Z,101377
2022-08-19T02:25:54.790Z,101376
2022-08-19T02:26:55.083Z,101373
2022-08-19T02:27:55.171Z,101379
2022-08-19T02:28:55.730Z,101376
2022-08-19T02:29:54.881Z,101372
2022-08-19T02:30:54.861Z,101372
2022-08-19T02:31:54.855Z,101369
2022-08-19T02:32:55.116Z,101361
2022-08-19T02:35:54.820Z,101361
2022-08-19T02:36:54.836Z,101357
2022-08-19T02:38:04.144Z,101359
2022-08-19T02:38:55.858Z,101358
2022-08-19T02:41:54.928Z,101359
2022-08-19T02:42:55.123Z,101357
2022-08-19T02:44:18.354Z,101356
2022-08-19T02:44:56.890Z,101357
2022-08-19T02:45:55.199Z,101356
2022-08-19T02:46:54.793Z,101359
2022-08-19T02:47:55.037Z,101361
2022-08-19T02:49:54.801Z,101355
2022-08-19T02:50:56.690Z,101351
2022-08-19T02:51:55.489Z,101349
2022-08-19T02:52:54.923Z,101347
2022-08-19T02:53:54.978Z,101346
2022-08-19T02:54:54.769Z,101343
2022-08-19T02:55:55.289Z,101342
2022-08-19T02:57:55.241Z,101344
2022-08-19T02:58:56.535Z,101342
2022-08-19T03:00:57.201Z,101342
2022-08-19T03:01:54.755Z,101340
2022-08-19T03:02:55.408Z,101338
2022-08-19T03:03:55.488Z,101339
2022-08-19T03:08:01.311Z,101335
2022-08-19T03:08:55.300Z,101339
2022-08-19T03:09:54.713Z,101339
2022-08-19T03:10:55.257Z,101341
2022-08-19T03:11:54.756Z,101343
2022-08-19T03:12:54.785Z,101345
2022-08-19T03:13:55.967Z,101345
2022-08-19T03:14:54.782Z,101345
2022-08-19T03:15:54.738Z,101348
2022-08-19T03:16:54.993Z,101348
2022-08-19T03:17:55.517Z,101345
2022-08-19T03:18:57.566Z,101349
2022-08-19T03:19:54.928Z,101345
2022-08-19T03:20:55.609Z,101346
2022-08-19T03:21:55.004Z,101344
2022-08-19T03:22:54.734Z,101344
2022-08-19T03:23:58.429Z,101344
2022-08-19T03:24:54.900Z,101343
2022-08-19T03:25:58.351Z,101346
2022-08-19T03:26:58.403Z,101348
2022-08-19T03:27:54.748Z,101350
2022-08-19T03:28:57.840Z,101352
2022-08-19T03:29:54.897Z,101352
2022-08-19T03:31:01.432Z,101350
2022-08-19T03:31:55.854Z,101352
2022-08-19T03:32:57.317Z,101352
2022-08-19T03:33:54.854Z,101349
2022-08-19T03:34:54.750Z,101344
2022-08-19T03:36:05.036Z,101341
2022-08-19T03:36:57.165Z,101335
2022-08-19T03:37:54.889Z,101335
2022-08-19T03:38:59.768Z,101332
2022-08-19T03:39:54.803Z,101333
2022-08-19T03:40:54.729Z,101339
2022-08-19T03:42:38.481Z,101340
2022-08-19T03:43:55.677Z,101339
2022-08-19T03:44:54.731Z,101335
2022-08-19T03:46:07.765Z,101330
2022-08-19T03:47:54.926Z,101327
2022-08-19T03:48:56.839Z,101323
2022-08-19T03:50:54.762Z,101321
2022-08-19T03:51:56.718Z,101322
2022-08-19T03:52:54.818Z,101322
2022-08-19T03:53:56.687Z,101321
2022-08-19T03:54:54.862Z,101318
2022-08-19T03:55:54.908Z,101314
2022-08-19T03:56:57.257Z,101314
2022-08-19T03:57:58.642Z,101312
2022-08-19T03:58:55.609Z,101310
2022-08-19T03:59:54.786Z,101309
2022-08-19T04:00:54.819Z,101307
2022-08-19T04:02:58.675Z,101301
2022-08-19T04:03:55.752Z,101303
2022-08-19T04:05:55.167Z,101297
2022-08-19T04:06:54.945Z,101296
2022-08-19T04:08:56.747Z,101300
2022-08-19T04:09:54.800Z,101296
2022-08-19T04:11:11.127Z,101295
2022-08-19T04:11:56.896Z,101291
2022-08-19T04:12:54.908Z,101291
2022-08-19T04:13:56.107Z,101290
2022-08-19T04:14:54.743Z,101289
2022-08-19T04:15:55.514Z,101284
2022-08-19T04:16:55.266Z,101285
2022-08-19T04:17:55.942Z,101283
2022-08-19T04:18:54.797Z,101279
2022-08-19T04:19:55.833Z,101279
2022-08-19T04:20:55.281Z,101279
2022-08-19T04:21:56.943Z,101282
2022-08-19T04:22:55.501Z,101284
2022-08-19T04:23:55.371Z,101288
2022-08-19T04:24:54.741Z,101291
2022-08-19T04:25:54.721Z,101291
2022-08-19T04:26:55.209Z,101290
2022-08-19T04:27:54.792Z,101290
2022-08-19T04:28:56.684Z,101299
2022-08-19T04:30:56.205Z,101305
2022-08-19T04:31:56.714Z,101306
2022-08-19T04:32:56.121Z,101309
2022-08-19T04:33:57.888Z,101309
2022-08-19T04:35:02.764Z,101305
2022-08-19T04:35:54.928Z,101310
2022-08-19T04:36:56.460Z,101305
2022-08-19T04:37:54.754Z,101309
2022-08-19T04:38:58.777Z,101307
2022-08-19T04:40:04.110Z,101311
2022-08-19T04:41:04.066Z,101310
2022-08-19T04:42:04.062Z,101310
2022-08-19T04:42:55.460Z,101306
2022-08-19T04:43:54.776Z,101305
2022-08-19T04:44:54.965Z,101302
2022-08-19T04:45:56.467Z,101301
2022-08-19T04:46:56.211Z,101298
2022-08-19T04:48:19.808Z,101293
2022-08-19T04:48:54.739Z,101296
2022-08-19T04:49:54.809Z,101294
2022-08-19T04:50:58.745Z,101292
2022-08-19T04:51:56.345Z,101285
2022-08-19T04:52:56.657Z,101277
2022-08-19T04:53:55.130Z,101270
2022-08-19T04:54:56.460Z,101274
2022-08-19T04:55:54.794Z,101278
2022-08-19T04:56:55.528Z,101280
2022-08-19T04:57:55.732Z,101284
2022-08-19T04:59:57.470Z,101288
2022-08-19T05:01:54.693Z,101287
2022-08-19T05:02:54.950Z,101284
2022-08-19T05:03:55.011Z,101281
2022-08-19T05:05:02.145Z,101281
2022-08-19T05:05:55.522Z,101285
2022-08-19T05:06:59.451Z,101287
2022-08-19T05:08:00.418Z,101289
2022-08-19T05:08:54.786Z,101292
2022-08-19T05:09:58.111Z,101296
2022-08-19T05:10:54.747Z,101295
2022-08-19T05:12:54.874Z,101296
2022-08-19T05:14:55.478Z,101292
2022-08-19T05:15:58.200Z,101290
2022-08-19T05:17:11.461Z,101286
2022-08-19T05:18:04.048Z,101279
2022-08-19T05:19:04.877Z,101273
2022-08-19T05:20:04.252Z,101268
2022-08-19T05:21:04.083Z,101262
2022-08-19T05:22:04.568Z,101260
2022-08-19T05:22:55.219Z,101256
2022-08-19T05:23:54.734Z,101256
2022-08-19T05:25:11.682Z,101255
2022-08-19T05:25:54.818Z,101256
2022-08-19T05:26:57.768Z,101257
2022-08-19T05:27:54.729Z,101253
2022-08-19T05:28:55.260Z,101248
2022-08-19T05:29:54.701Z,101247
2022-08-19T05:30:56.671Z,101242
2022-08-19T05:31:56.381Z,101238
2022-08-19T05:32:56.772Z,101239
2022-08-19T05:33:54.738Z,101236
2022-08-19T05:34:54.831Z,101234
2022-08-19T05:35:55.377Z,101229
2022-08-19T05:36:58.222Z,101227
2022-08-19T05:37:58.897Z,101226
2022-08-19T05:38:55.308Z,101221
2022-08-19T05:39:55.906Z,101222
2022-08-19T05:40:54.701Z,101216
2022-08-19T05:41:58.708Z,101214
2022-08-19T05:42:54.707Z,101208
2022-08-19T05:43:54.710Z,101205
2022-08-19T05:44:55.213Z,101201
2022-08-19T05:45:54.657Z,101200
2022-08-19T05:46:55.266Z,101203
2022-08-19T05:47:55.385Z,101202
2022-08-19T05:48:57.319Z,101205
2022-08-19T05:49:54.799Z,101203
2022-08-19T05:50:54.749Z,101206
2022-08-19T05:51:56.443Z,101208
2022-08-19T05:52:54.992Z,101213
2022-08-19T05:53:54.745Z,101214
2022-08-19T05:54:57.073Z,101225
2022-08-19T05:55:54.671Z,101230
2022-08-19T05:56:55.628Z,101235
2022-08-19T05:57:54.702Z,101234
2022-08-19T05:58:55.368Z,101233
2022-08-19T05:59:58.737Z,101238
2022-08-19T06:00:55.916Z,101240
2022-08-19T06:01:58.115Z,101240
2022-08-19T06:02:57.697Z,101245
2022-08-19T06:03:55.371Z,101247
2022-08-19T06:05:55.454Z,101252
2022-08-19T06:06:57.447Z,101257
2022-08-19T06:07:55.497Z,101262
2022-08-19T06:08:54.671Z,101268
2022-08-19T06:10:00.998Z,101267
2022-08-19T06:10:54.954Z,101269
2022-08-19T06:12:00.030Z,101271
2022-08-19T06:12:55.343Z,101274
2022-08-19T06:14:00.225Z,101283
2022-08-19T06:15:00.524Z,101293
2022-08-19T06:15:54.669Z,101295
2022-08-19T06:16:54.657Z,101298
2022-08-19T06:17:54.913Z,101295
2022-08-19T06:18:55.767Z,101291
2022-08-19T06:19:54.730Z,101292
2022-08-19T06:20:56.177Z,101292
2022-08-19T06:21:55.195Z,101292
2022-08-19T06:22:55.316Z,101291
2022-08-19T06:23:55.643Z,101292
2022-08-19T06:24:55.264Z,101292
2022-08-19T06:25:54.687Z,101292
2022-08-19T06:27:00.753Z,101293
2022-08-19T06:28:14.112Z,101293
2022-08-19T06:28:54.974Z,101293
2022-08-19T06:29:55.194Z,101293
2022-08-19T06:30:54.714Z,101296
2022-08-19T06:31:57.435Z,101296
2022-08-19T06:32:55.114Z,101295
2022-08-19T06:33:55.186Z,101296
2022-08-19T06:34:54.689Z,101300
2022-08-19T06:35:54.667Z,101298
2022-08-19T06:36:54.972Z,101300
2022-08-19T06:37:55.257Z,101298
2022-08-19T06:38:58.073Z,101294
2022-08-19T06:39:54.680Z,101288
2022-08-19T06:41:07.787Z,101287
2022-08-19T06:41:58.963Z,101279
2022-08-19T06:42:55.441Z,101280
2022-08-19T06:43:56.464Z,101280
2022-08-19T06:44:54.739Z,101283
2022-08-19T06:45:54.614Z,101282
2022-08-19T06:46:55.666Z,101284
2022-08-19T06:47:57.174Z,101285
2022-08-19T06:48:55.516Z,101287
2022-08-19T06:50:02.754Z,101288
2022-08-19T06:50:55.007Z,101290
2022-08-19T06:52:55.526Z,101290
2022-08-19T06:53:56.428Z,101287
2022-08-19T06:56:01.058Z,101283
2022-08-19T06:57:54.934Z,101276
2022-08-19T06:59:57.532Z,101273
2022-08-19T07:00:54.684Z,101273
2022-08-19T07:03:54.859Z,101267
2022-08-19T07:04:55.096Z,101267
2022-08-19T07:07:01.191Z,101270
2022-08-19T07:07:58.206Z,101267
2022-08-19T07:08:54.648Z,101265
2022-08-19T07:09:59.147Z,101265
2022-08-19T07:10:55.650Z,101256
2022-08-19T07:11:55.946Z,101255
2022-08-19T07:13:55.932Z,101248
2022-08-19T07:14:54.674Z,101245
2022-08-19T07:15:54.840Z,101251
2022-08-19T07:16:57.197Z,101254
2022-08-19T07:17:54.672Z,101263
2022-08-19T07:18:54.962Z,101263
2022-08-19T07:19:56.437Z,101261
2022-08-19T07:21:06.112Z,101262
2022-08-19T07:21:55.388Z,101260
2022-08-19T07:22:54.859Z,101259
2022-08-19T07:24:54.657Z,101252
2022-08-19T07:26:58.213Z,101249
2022-08-19T07:27:54.716Z,101249
2022-08-19T07:28:55.441Z,101249
2022-08-19T07:29:55.834Z,101246
2022-08-19T07:30:55.468Z,101248
2022-08-19T07:31:57.756Z,101244
2022-08-19T07:32:54.715Z,101243
2022-08-19T07:33:57.997Z,101246
2022-08-19T07:34:54.794Z,101250
2022-08-19T07:36:56.009Z,101252
2022-08-19T07:37:54.860Z,101250
2022-08-19T07:40:55.412Z,101245
2022-08-19T07:42:54.753Z,101246
2022-08-19T07:44:54.621Z,101248
2022-08-19T07:45:57.558Z,101247
2022-08-19T07:48:54.598Z,101254
2022-08-19T07:49:54.629Z,101258
2022-08-19T07:50:55.822Z,101258
2022-08-19T07:51:58.511Z,101256
2022-08-19T07:52:55.012Z,101256
2022-08-19T07:55:54.718Z,101242
2022-08-19T07:56:55.060Z,101241
2022-08-19T07:57:55.099Z,101243
2022-08-19T07:59:54.617Z,101240
2022-08-19T08:00:54.662Z,101241
2022-08-19T08:01:55.059Z,101238
2022-08-19T08:02:56.070Z,101231
2022-08-19T08:04:06.074Z,101232
2022-08-19T08:06:03.978Z,101231
2022-08-19T08:09:04.102Z,101224
2022-08-19T08:15:56.080Z,101195
2022-08-19T08:16:54.898Z,101192
2022-08-19T08:18:54.557Z,101191
2022-08-19T08:19:55.324Z,101189
2022-08-19T08:20:54.766Z,101186
2022-08-19T08:21:57.228Z,101188
2022-08-19T08:23:03.906Z,101192
2022-08-19T08:23:56.862Z,101192
2022-08-19T08:24:54.658Z,101191
2022-08-19T08:26:00.051Z,101188
2022-08-19T08:26:54.725Z,101184
2022-08-19T08:27:55.331Z,101184
2022-08-19T08:28:55.098Z,101183
2022-08-19T08:29:54.583Z,101182
2022-08-19T08:30:55.420Z,101176
2022-08-19T08:31:59.657Z,101171
2022-08-19T08:32:54.706Z,101166
2022-08-19T08:33:54.717Z,101168
2022-08-19T08:34:55.274Z,101168
2022-08-19T08:35:54.590Z,101167
2022-08-19T08:36:54.753Z,101165
2022-08-19T08:39:55.677Z,101162
2022-08-19T08:41:07.683Z,101155
2022-08-19T08:42:10.305Z,101149
2022-08-19T08:43:05.718Z,101150
2022-08-19T08:43:55.325Z,101144
2022-08-19T08:45:02.558Z,101152
2022-08-19T08:46:02.514Z,101153
2022-08-19T08:46:59.372Z,101156
2022-08-19T08:47:57.673Z,101154
2022-08-19T08:48:59.560Z,101153
2022-08-19T08:50:03.079Z,101149
2022-08-19T08:50:58.285Z,101149
2022-08-19T08:52:02.191Z,101147
2022-08-19T08:52:59.795Z,101146
2022-08-19T08:53:57.016Z,101141
2022-08-19T08:54:58.797Z,101137
2022-08-19T08:55:54.630Z,101130
2022-08-19T08:56:56.253Z,101126
2022-08-19T08:58:02.902Z,101125
2022-08-19T08:59:11.148Z,101124
2022-08-19T08:59:58.622Z,101117
2022-08-19T09:00:54.840Z,101118
2022-08-19T09:01:54.759Z,101115
2022-08-19T09:02:57.028Z,101113
2022-08-19T09:04:56.492Z,101116
2022-08-19T09:07:18.151Z,101124
2022-08-19T09:07:57.945Z,101121
2022-08-19T09:10:08.470Z,101126
2022-08-19T09:10:56.820Z,101129
2022-08-19T09:12:08.514Z,101127
2022-08-19T09:14:01.759Z,101126
2022-08-19T09:15:01.695Z,101125
2022-08-19T09:16:00.858Z,101124
2022-08-19T09:16:54.603Z,101121
2022-08-19T09:17:54.708Z,101120
2022-08-19T09:19:00.136Z,101121
2022-08-19T09:19:58.044Z,101124
2022-08-19T09:20:54.706Z,101124
2022-08-19T09:21:55.019Z,101122
2022-08-19T09:22:54.619Z,101128
2022-08-19T09:23:54.767Z,101129
2022-08-19T09:24:55.576Z,101125
2022-08-19T09:25:54.709Z,101126
2022-08-19T09:26:54.596Z,101122
2022-08-19T09:28:02.551Z,101122
2022-08-19T09:29:55.440Z,101118
2022-08-19T09:30:54.588Z,101112
2022-08-19T09:33:59.238Z,101100
2022-08-19T09:34:55.975Z,101098
2022-08-19T09:36:56.314Z,101099
2022-08-19T09:37:57.653Z,101099
2022-08-19T09:38:55.004Z,101099
2022-08-19T09:39:55.583Z,101093
2022-08-19T09:40:54.554Z,101092
2022-08-19T09:41:54.776Z,101091
2022-08-19T09:42:54.770Z,101091
2022-08-19T09:43:57.293Z,101091
2022-08-19T09:44:54.536Z,101087
2022-08-19T09:46:54.617Z,101086
2022-08-19T09:48:55.945Z,101082
2022-08-19T09:51:57.214Z,101073
2022-08-19T09:52:57.178Z,101071
2022-08-19T09:53:56.009Z,101076
2022-08-19T09:55:56.559Z,101081
2022-08-19T09:56:55.785Z,101082
2022-08-19T09:57:56.501Z,101085
2022-08-19T09:59:54.649Z,101083
2022-08-19T10:00:54.987Z,101078
2022-08-19T10:01:54.921Z,101075
2022-08-19T10:02:54.588Z,101071
2022-08-19T10:05:55.573Z,101072
2022-08-19T10:06:58.242Z,101070
2022-08-19T10:10:56.073Z,101071
2022-08-19T10:14:55.650Z,101069
2022-08-19T10:16:54.601Z,101064
2022-08-19T10:19:55.693Z,101060
2022-08-19T10:21:03.394Z,101059
2022-08-19T10:22:00.085Z,101059
2022-08-19T10:25:54.894Z,101049
2022-08-19T10:29:54.853Z,101062
2022-08-19T10:30:54.758Z,101062
2022-08-19T10:33:59.328Z,101061
2022-08-19T10:36:56.242Z,101055
2022-08-19T10:39:54.554Z,101050
2022-08-19T10:41:54.587Z,101049
2022-08-19T10:43:56.560Z,101047
2022-08-19T10:46:04.992Z,101044
2022-08-19T10:46:54.619Z,101043
2022-08-19T10:47:55.251Z,101041
2022-08-19T10:51:04.135Z,101033
2022-08-19T10:52:55.177Z,101023
2022-08-19T10:55:05.268Z,101025
2022-08-19T10:56:03.839Z,101030
2022-08-19T10:58:02.341Z,101029
2022-08-19T10:58:54.592Z,101025
2022-08-19T10:59:54.481Z,101020
2022-08-19T11:00:58.299Z,101016
2022-08-19T11:01:55.810Z,101012
2022-08-19T11:03:54.575Z,101007
2022-08-19T11:04:54.575Z,100999
2022-08-19T11:09:55.012Z,100991
2022-08-19T11:12:55.869Z,100989
2022-08-19T11:14:55.684Z,100989
2022-08-19T11:17:55.602Z,100985
2022-08-19T11:18:59.459Z,100987
2022-08-19T11:20:54.659Z,100987
2022-08-19T11:21:57.631Z,100984
2022-08-19T11:22:55.766Z,100981
2022-08-19T11:29:55.360Z,100951
2022-08-19T11:30:54.577Z,100951
2022-08-19T11:32:54.494Z,100945
2022-08-19T11:33:54.918Z,100945
2022-08-19T11:34:55.550Z,100944
2022-08-19T11:36:55.697Z,100942
2022-08-19T11:38:55.396Z,100936
2022-08-19T11:39:54.811Z,100935
2022-08-19T11:41:54.582Z,100928
2022-08-19T11:43:56.270Z,100929
2022-08-19T11:45:56.501Z,100918
2022-08-19T11:46:54.630Z,100915
2022-08-19T11:51:55.324Z,100893
2022-08-19T11:53:56.442Z,100885
2022-08-19T11:54:55.005Z,100886
2022-08-19T11:55:56.993Z,100885
2022-08-19T11:56:54.425Z,100884
2022-08-19T11:58:57.755Z,100886
2022-08-19T11:59:54.751Z,100886
2022-08-19T12:01:54.595Z,100888
2022-08-19T12:05:55.854Z,100876
2022-08-19T12:07:55.787Z,100871
2022-08-19T12:09:54.476Z,100864
2022-08-19T12:11:54.551Z,100854
2022-08-19T12:13:55.398Z,100858
2022-08-19T12:15:55.216Z,100860
2022-08-19T12:17:57.612Z,100861
2022-08-19T12:18:54.609Z,100861
2022-08-19T12:19:55.109Z,100862
2022-08-19T12:20:57.217Z,100860
2022-08-19T12:22:54.517Z,100861
2022-08-19T12:23:56.099Z,100857
2022-08-19T12:24:54.951Z,100859
2022-08-19T12:26:56.490Z,100855
2022-08-19T12:27:57.540Z,100852
2022-08-19T12:28:54.738Z,100850
2022-08-19T12:30:54.484Z,100845
2022-08-19T12:33:54.644Z,100837
2022-08-19T12:36:54.546Z,100841
2022-08-19T12:37:56.677Z,100841
2022-08-19T12:38:54.609Z,100844
2022-08-19T12:40:59.630Z,100852
2022-08-19T12:41:55.268Z,100851
2022-08-19T12:42:55.062Z,100850
2022-08-19T12:43:54.422Z,100852
2022-08-19T12:44:54.538Z,100842
2022-08-19T12:45:54.479Z,100841
2022-08-19T12:46:54.405Z,100834
2022-08-19T12:47:55.248Z,100833
2022-08-19T12:48:56.223Z,100829
2022-08-19T12:49:55.996Z,100826
2022-08-19T12:50:55.326Z,100822
2022-08-19T12:51:54.460Z,100822
2022-08-19T12:52:54.425Z,100818
2022-08-19T12:53:54.405Z,100816
2022-08-19T12:55:58.479Z,100814
2022-08-19T12:56:55.137Z,100810
2022-08-19T12:58:54.537Z,100806
2022-08-19T12:59:55.060Z,100804
2022-08-19T13:00:54.558Z,100805
2022-08-19T13:01:54.557Z,100808
2022-08-19T13:02:55.007Z,100809
2022-08-19T13:03:54.432Z,100816
2022-08-19T13:04:55.032Z,100815
2022-08-19T13:05:54.436Z,100817
2022-08-19T13:06:54.478Z,100812
2022-08-19T13:07:57.303Z,100810
2022-08-19T13:08:59.434Z,100807
2022-08-19T13:09:54.891Z,100809
2022-08-19T13:10:55.440Z,100813
2022-08-19T13:11:54.433Z,100815
2022-08-19T13:12:54.442Z,100812
2022-08-19T13:13:56.381Z,100811
2022-08-19T13:14:55.346Z,100812
2022-08-19T13:15:54.437Z,100812
2022-08-19T13:16:54.487Z,100816
2022-08-19T13:17:56.896Z,100817
2022-08-19T13:18:54.407Z,100819
2022-08-19T13:19:54.567Z,100826
2022-08-19T13:20:54.438Z,100831
2022-08-19T13:22:00.264Z,100835
2022-08-19T13:22:55.360Z,100836
2022-08-19T13:23:55.234Z,100841
2022-08-19T13:24:54.502Z,100839
2022-08-19T13:26:03.822Z,100835
2022-08-19T13:26:54.398Z,100832
2022-08-19T13:27:56.248Z,100829
2022-08-19T13:29:03.771Z,100831
2022-08-19T13:30:03.756Z,100826
2022-08-19T13:32:03.739Z,100822
2022-08-19T13:33:03.908Z,100826
2022-08-19T13:36:01.564Z,100829
2022-08-19T13:39:54.433Z,100821
2022-08-19T13:40:56.316Z,100822
2022-08-19T13:42:56.544Z,100822
2022-08-19T13:43:55.382Z,100825
2022-08-19T13:44:56.277Z,100824
2022-08-19T13:47:59.422Z,100821
2022-08-19T13:50:55.350Z,100810
2022-08-19T13:51:54.412Z,100811
2022-08-19T13:52:55.871Z,100810
2022-08-19T13:53:54.615Z,100812
2022-08-19T13:55:55.103Z,100809
2022-08-19T13:58:55.212Z,100806
2022-08-19T13:59:54.394Z,100806
2022-08-19T14:00:54.557Z,100806
2022-08-19T14:02:57.269Z,100799
2022-08-19T14:03:54.501Z,100802
2022-08-19T14:04:54.616Z,100800
2022-08-19T14:06:54.427Z,100804
2022-08-19T14:07:55.005Z,100799
2022-08-19T14:08:54.478Z,100801
2022-08-19T14:09:54.372Z,100799
2022-08-19T14:10:54.402Z,100796
2022-08-19T14:11:54.313Z,100791
2022-08-19T14:12:56.832Z,100792
2022-08-19T14:16:54.424Z,100793
2022-08-19T14:17:55.375Z,100794
2022-08-19T14:18:54.658Z,100794
2022-08-19T14:20:05.827Z,100794
2022-08-19T14:20:54.950Z,100794
2022-08-19T14:21:54.349Z,100794
2022-08-19T14:22:56.235Z,100797
2022-08-19T14:23:55.080Z,100795
2022-08-19T14:24:54.294Z,100795
2022-08-19T14:26:00.807Z,100797
2022-08-19T14:26:54.397Z,100797
2022-08-19T14:27:54.618Z,100793
2022-08-19T14:29:54.621Z,100794
2022-08-19T14:30:56.524Z,100793
2022-08-19T14:31:54.372Z,100790
2022-08-19T14:32:55.179Z,100789
2022-08-19T14:34:55.735Z,100782
2022-08-19T14:36:54.599Z,100772
2022-08-19T14:37:57.219Z,100769
2022-08-19T14:44:55.006Z,100767
2022-08-19T14:46:54.656Z,100763
2022-08-19T14:47:54.846Z,100762
2022-08-19T14:48:55.305Z,100761
2022-08-19T14:50:54.402Z,100759
2022-08-19T14:51:54.357Z,100754
2022-08-19T14:54:54.500Z,100746
2022-08-19T14:57:54.441Z,100740
2022-08-19T14:59:54.423Z,100740
2022-08-19T15:00:54.342Z,100736
2022-08-19T15:01:54.430Z,100735
2022-08-19T15:02:55.758Z,100728
2022-08-19T15:05:54.729Z,100715
2022-08-19T15:06:54.359Z,100712
2022-08-19T15:07:55.616Z,100709
2022-08-19T15:08:56.101Z,100710
2022-08-19T15:10:54.600Z,100709
2022-08-19T15:12:55.855Z,100702
2022-08-19T15:15:54.912Z,100693
2022-08-19T15:17:54.384Z,100682
2022-08-19T15:20:55.235Z,100674
2022-08-19T15:21:55.885Z,100673
2022-08-19T15:22:54.273Z,100672
2022-08-19T15:23:55.125Z,100672
2022-08-19T15:24:56.069Z,100673
2022-08-19T15:25:55.930Z,100667
2022-08-19T15:26:56.866Z,100668
2022-08-19T15:27:54.564Z,100665
2022-08-19T15:29:54.732Z,100660
2022-08-19T15:30:54.470Z,100659
2022-08-19T15:31:56.316Z,100653
2022-08-19T15:32:55.825Z,100647
2022-08-19T15:34:54.978Z,100640
2022-08-19T15:35:54.356Z,100636
2022-08-19T15:36:55.117Z,100635
2022-08-19T15:37:56.860Z,100638
2022-08-19T15:38:54.297Z,100637
2022-08-19T15:39:54.320Z,100636
2022-08-19T15:41:54.544Z,100648
2022-08-19T15:42:55.358Z,100649
2022-08-19T15:43:59.732Z,100655
2022-08-19T15:44:54.304Z,100656
2022-08-19T15:45:54.270Z,100651
2022-08-19T15:46:54.413Z,100647
2022-08-19T15:47:54.429Z,100647
2022-08-19T15:48:57.231Z,100648
2022-08-19T15:49:57.706Z,100653
2022-08-19T15:50:54.226Z,100655
2022-08-19T15:51:57.816Z,100658
2022-08-19T15:52:57.125Z,100656
2022-08-19T15:53:55.390Z,100656
2022-08-19T15:54:54.290Z,100658
2022-08-19T15:57:03.655Z,100659
2022-08-19T15:58:04.573Z,100663
2022-08-19T16:00:03.740Z,100664
2022-08-19T16:08:55.728Z,100659
2022-08-19T16:09:54.284Z,100659